sensor_id;sensor_type;location;lat;lon;timestamp;temperature;humidity
19966;DHT22;10144;50.874;4.762;2022-10-23T00:03:11;14.60;99.90
19966;DHT22;10144;50.874;4.762;2022-10-23T00:09:00;14.60;99.90
19966;DHT22;10144;50.874;4.762;2022-10-23T00:14:48;14.60;99.90
19966;DHT22;10144;50.874;4.762;2022-10-23T00:23:58;14.70;99.90
19966;DHT22;10144;50.874;4.762;2022-10-23T00:29:53;14.70;99.90
19966;DHT22;10144;50.874;4.762;2022-10-23T00:32:41;14.70;99.90
19966;DHT22;10144;50.874;4.762;2022-10-23T00:38:29;14.70;99.90
19966;DHT22;10144;50.874;4.762;2022-10-23T00:41:19;14.70;99.90
19966;DHT22;10144;50.874;4.762;2022-10-23T00:47:07;14.70;99.90
19966;DHT22;10144;50.874;4.762;2022-10-23T00:52:57;14.70;99.90
19966;DHT22;10144;50.874;4.762;2022-10-23T00:55:41;14.70;99.90
19966;DHT22;10144;50.874;4.762;2022-10-23T01:01:33;14.70;99.90
19966;DHT22;10144;50.874;4.762;2022-10-23T01:07:27;14.40;99.90
19966;DHT22;10144;50.874;4.762;2022-10-23T01:33:15;14.20;99.90
19966;DHT22;10144;50.874;4.762;2022-10-23T01:38:53;14.20;99.90
19966;DHT22;10144;50.874;4.762;2022-10-23T01:48:29;14.20;99.90
19966;DHT22;10144;50.874;4.762;2022-10-23T01:51:15;14.30;99.90
19966;DHT22;10144;50.874;4.762;2022-10-23T02:00:12;14.40;99.90
19966;DHT22;10144;50.874;4.762;2022-10-23T02:02:57;14.40;99.90
19966;DHT22;10144;50.874;4.762;2022-10-23T02:08:49;14.50;99.90
19966;DHT22;10144;50.874;4.762;2022-10-23T02:11:38;14.50;99.90
19966;DHT22;10144;50.874;4.762;2022-10-23T02:26:50;14.50;99.90
19966;DHT22;10144;50.874;4.762;2022-10-23T02:32:45;14.50;99.90
19966;DHT22;10144;50.874;4.762;2022-10-23T02:35:48;14.40;99.90
19966;DHT22;10144;50.874;4.762;2022-10-23T03:04:15;14.50;99.90
19966;DHT22;10144;50.874;4.762;2022-10-23T03:10:06;14.50;99.90
19966;DHT22;10144;50.874;4.762;2022-10-23T03:15:54;14.60;99.90
19966;DHT22;10144;50.874;4.762;2022-10-23T03:21:41;14.60;99.90
19966;DHT22;10144;50.874;4.762;2022-10-23T03:27:30;14.70;99.90
19966;DHT22;10144;50.874;4.762;2022-10-23T03:33:17;14.80;99.90
19966;DHT22;10144;50.874;4.762;2022-10-23T03:39:05;14.80;99.90
19966;DHT22;10144;50.874;4.762;2022-10-23T03:44:53;14.80;99.90
19966;DHT22;10144;50.874;4.762;2022-10-23T03:54:07;14.70;99.90
19966;DHT22;10144;50.874;4.762;2022-10-23T03:59:55;14.70;99.90
19966;DHT22;10144;50.874;4.762;2022-10-23T04:05:43;14.70;99.90
19966;DHT22;10144;50.874;4.762;2022-10-23T04:11:31;14.70;99.90
19966;DHT22;10144;50.874;4.762;2022-10-23T04:17:19;14.60;99.90
19966;DHT22;10144;50.874;4.762;2022-10-23T04:23:06;14.60;99.90
19966;DHT22;10144;50.874;4.762;2022-10-23T04:28:54;14.70;99.90
19966;DHT22;10144;50.874;4.762;2022-10-23T04:34:42;14.70;99.90
19966;DHT22;10144;50.874;4.762;2022-10-23T04:40:30;14.70;99.90
19966;DHT22;10144;50.874;4.762;2022-10-23T04:46:17;14.80;99.90
19966;DHT22;10144;50.874;4.762;2022-10-23T04:52:05;14.80;99.90
19966;DHT22;10144;50.874;4.762;2022-10-23T04:57:53;14.80;99.90
19966;DHT22;10144;50.874;4.762;2022-10-23T05:03:41;14.90;99.90
19966;DHT22;10144;50.874;4.762;2022-10-23T05:09:29;15.10;99.90
19966;DHT22;10144;50.874;4.762;2022-10-23T05:15:17;14.90;99.90
19966;DHT22;10144;50.874;4.762;2022-10-23T05:27:50;15.00;99.90
19966;DHT22;10144;50.874;4.762;2022-10-23T05:33:38;14.90;99.90
19966;DHT22;10144;50.874;4.762;2022-10-23T05:39:27;15.00;99.90
19966;DHT22;10144;50.874;4.762;2022-10-23T05:45:15;15.00;99.90
19966;DHT22;10144;50.874;4.762;2022-10-23T05:51:09;15.20;99.90
19966;DHT22;10144;50.874;4.762;2022-10-23T05:56:56;15.20;99.90
19966;DHT22;10144;50.874;4.762;2022-10-23T06:02:44;15.10;99.90
19966;DHT22;10144;50.874;4.762;2022-10-23T06:08:33;15.30;99.90
19966;DHT22;10144;50.874;4.762;2022-10-23T06:14:21;15.40;99.90
19966;DHT22;10144;50.874;4.762;2022-10-23T06:20:09;15.30;99.90
19966;DHT22;10144;50.874;4.762;2022-10-23T06:25:57;15.20;99.90
19966;DHT22;10144;50.874;4.762;2022-10-23T06:31:44;15.20;99.90
19966;DHT22;10144;50.874;4.762;2022-10-23T06:37:33;15.20;99.90
19966;DHT22;10144;50.874;4.762;2022-10-23T06:43:20;15.30;99.90
19966;DHT22;10144;50.874;4.762;2022-10-23T06:49:08;15.30;99.90
19966;DHT22;10144;50.874;4.762;2022-10-23T06:54:56;15.20;99.90
19966;DHT22;10144;50.874;4.762;2022-10-23T07:00:44;15.40;99.90
19966;DHT22;10144;50.874;4.762;2022-10-23T07:06:31;15.60;99.90
19966;DHT22;10144;50.874;4.762;2022-10-23T07:12:19;15.50;99.90
19966;DHT22;10144;50.874;4.762;2022-10-23T07:18:07;15.50;99.90
19966;DHT22;10144;50.874;4.762;2022-10-23T07:24:01;15.40;99.90
19966;DHT22;10144;50.874;4.762;2022-10-23T07:29:50;15.50;99.90
19966;DHT22;10144;50.874;4.762;2022-10-23T07:35:39;15.70;99.90
19966;DHT22;10144;50.874;4.762;2022-10-23T07:44:38;15.80;99.90
19966;DHT22;10144;50.874;4.762;2022-10-23T07:47:09;15.80;99.90
19966;DHT22;10144;50.874;4.762;2022-10-23T07:52:57;15.90;99.90
19966;DHT22;10144;50.874;4.762;2022-10-23T07:55:25;15.90;99.90
19966;DHT22;10144;50.874;4.762;2022-10-23T07:57:55;15.90;99.90
19966;DHT22;10144;50.874;4.762;2022-10-23T08:00:32;15.90;99.90
19966;DHT22;10144;50.874;4.762;2022-10-23T08:03:02;16.00;99.90
19966;DHT22;10144;50.874;4.762;2022-10-23T08:05:27;15.90;99.90
19966;DHT22;10144;50.874;4.762;2022-10-23T08:07:57;15.80;99.90
19966;DHT22;10144;50.874;4.762;2022-10-23T08:10:34;15.80;99.90
19966;DHT22;10144;50.874;4.762;2022-10-23T08:19:25;15.90;99.90
19966;DHT22;10144;50.874;4.762;2022-10-23T08:21:54;15.90;99.90
19966;DHT22;10144;50.874;4.762;2022-10-23T08:24:40;16.00;99.90
19966;DHT22;10144;50.874;4.762;2022-10-23T08:27:10;16.00;99.90
19966;DHT22;10144;50.874;4.762;2022-10-23T08:29:39;16.00;99.90
19966;DHT22;10144;50.874;4.762;2022-10-23T08:32:06;16.00;99.90
19966;DHT22;10144;50.874;4.762;2022-10-23T08:34:31;16.00;99.90
19966;DHT22;10144;50.874;4.762;2022-10-23T08:37:06;16.00;99.90
19966;DHT22;10144;50.874;4.762;2022-10-23T08:39:32;16.00;99.90
19966;DHT22;10144;50.874;4.762;2022-10-23T08:42:00;16.00;99.90
19966;DHT22;10144;50.874;4.762;2022-10-23T08:44:45;16.10;99.90
19966;DHT22;10144;50.874;4.762;2022-10-23T08:47:21;16.20;99.90
19966;DHT22;10144;50.874;4.762;2022-10-23T08:50:05;16.30;99.90
19966;DHT22;10144;50.874;4.762;2022-10-23T08:52:56;16.20;99.90
19966;DHT22;10144;50.874;4.762;2022-10-23T09:12:15;16.30;99.90
19966;DHT22;10144;50.874;4.762;2022-10-23T09:17:56;16.50;99.90
19966;DHT22;10144;50.874;4.762;2022-10-23T09:23:48;16.40;99.90
19966;DHT22;10144;50.874;4.762;2022-10-23T09:26:16;16.50;99.90
19966;DHT22;10144;50.874;4.762;2022-10-23T09:28:49;16.50;99.90
19966;DHT22;10144;50.874;4.762;2022-10-23T09:31:16;16.50;99.90
19966;DHT22;10144;50.874;4.762;2022-10-23T09:40:51;16.50;99.90
19966;DHT22;10144;50.874;4.762;2022-10-23T09:43:19;16.70;99.90
19966;DHT22;10144;50.874;4.762;2022-10-23T09:46:05;16.70;99.90
19966;DHT22;10144;50.874;4.762;2022-10-23T09:48:36;16.80;99.90
19966;DHT22;10144;50.874;4.762;2022-10-23T09:51:20;16.90;99.90
19966;DHT22;10144;50.874;4.762;2022-10-23T09:54:02;17.10;99.90
19966;DHT22;10144;50.874;4.762;2022-10-23T09:57:02;17.10;99.90
19966;DHT22;10144;50.874;4.762;2022-10-23T10:03:16;17.30;99.90
19966;DHT22;10144;50.874;4.762;2022-10-23T10:06:01;17.40;99.90
19966;DHT22;10144;50.874;4.762;2022-10-23T10:08:48;17.60;99.90
19966;DHT22;10144;50.874;4.762;2022-10-23T10:14:31;17.90;99.90
19966;DHT22;10144;50.874;4.762;2022-10-23T10:17:07;18.00;99.90
19966;DHT22;10144;50.874;4.762;2022-10-23T10:23:17;18.10;99.90
19966;DHT22;10144;50.874;4.762;2022-10-23T10:38:22;18.20;99.90
19966;DHT22;10144;50.874;4.762;2022-10-23T10:46:58;18.50;99.90
19966;DHT22;10144;50.874;4.762;2022-10-23T10:55:53;18.40;99.90
19966;DHT22;10144;50.874;4.762;2022-10-23T10:58:58;18.60;99.90
19966;DHT22;10144;50.874;4.762;2022-10-23T11:01:33;18.60;99.90
19966;DHT22;10144;50.874;4.762;2022-10-23T11:04:36;18.70;99.90
19966;DHT22;10144;50.874;4.762;2022-10-23T11:07:09;18.70;99.90
19966;DHT22;10144;50.874;4.762;2022-10-23T11:09:37;18.90;99.90
19966;DHT22;10144;50.874;4.762;2022-10-23T11:12:19;19.00;99.90
19966;DHT22;10144;50.874;4.762;2022-10-23T11:15:15;19.10;99.90
19966;DHT22;10144;50.874;4.762;2022-10-23T11:37:18;19.40;99.90
19966;DHT22;10144;50.874;4.762;2022-10-23T11:40:24;19.40;99.90
19966;DHT22;10144;50.874;4.762;2022-10-23T11:48:54;19.60;99.90
19966;DHT22;10144;50.874;4.762;2022-10-23T11:54:45;19.60;99.90
19966;DHT22;10144;50.874;4.762;2022-10-23T11:57:16;19.70;99.90
19966;DHT22;10144;50.874;4.762;2022-10-23T11:59:55;19.80;99.90
19966;DHT22;10144;50.874;4.762;2022-10-23T12:02:54;20.00;99.90
19966;DHT22;10144;50.874;4.762;2022-10-23T12:05:37;20.00;99.90
19966;DHT22;10144;50.874;4.762;2022-10-23T12:08:19;20.00;99.90
19966;DHT22;10144;50.874;4.762;2022-10-23T12:10:56;20.20;99.90
19966;DHT22;10144;50.874;4.762;2022-10-23T12:23:44;20.40;99.90
19966;DHT22;10144;50.874;4.762;2022-10-23T12:30:13;20.40;99.90
19966;DHT22;10144;50.874;4.762;2022-10-23T12:38:45;20.30;99.90
19966;DHT22;10144;50.874;4.762;2022-10-23T12:51:05;20.20;99.90
19966;DHT22;10144;50.874;4.762;2022-10-23T12:53:47;20.30;99.90
19966;DHT22;10144;50.874;4.762;2022-10-23T12:59:20;20.50;99.90
19966;DHT22;10144;50.874;4.762;2022-10-23T13:05:20;20.80;99.90
19966;DHT22;10144;50.874;4.762;2022-10-23T13:07:59;20.90;99.90
19966;DHT22;10144;50.874;4.762;2022-10-23T13:10:29;21.00;99.90
19966;DHT22;10144;50.874;4.762;2022-10-23T13:13:04;21.10;99.90
19966;DHT22;10144;50.874;4.762;2022-10-23T13:16:00;21.10;99.90
19966;DHT22;10144;50.874;4.762;2022-10-23T13:18:40;21.20;99.90
19966;DHT22;10144;50.874;4.762;2022-10-23T13:21:28;21.50;99.90
19966;DHT22;10144;50.874;4.762;2022-10-23T13:27:32;21.70;99.90
19966;DHT22;10144;50.874;4.762;2022-10-23T13:39:42;21.10;99.90
19966;DHT22;10144;50.874;4.762;2022-10-23T13:48:44;20.80;99.90
19966;DHT22;10144;50.874;4.762;2022-10-23T13:51:31;20.70;99.90
19966;DHT22;10144;50.874;4.762;2022-10-23T13:57:37;20.80;99.90
19966;DHT22;10144;50.874;4.762;2022-10-23T14:03:29;20.90;99.90
19966;DHT22;10144;50.874;4.762;2022-10-23T14:06:14;20.80;99.90
19966;DHT22;10144;50.874;4.762;2022-10-23T14:08:42;20.70;99.90
19966;DHT22;10144;50.874;4.762;2022-10-23T14:11:15;20.80;99.90
19966;DHT22;10144;50.874;4.762;2022-10-23T14:13:40;20.80;99.90
19966;DHT22;10144;50.874;4.762;2022-10-23T14:16:08;20.80;99.90
19966;DHT22;10144;50.874;4.762;2022-10-23T14:18:35;20.70;99.90
19966;DHT22;10144;50.874;4.762;2022-10-23T14:21:02;20.70;99.90
19966;DHT22;10144;50.874;4.762;2022-10-23T14:23:28;20.60;99.90
19966;DHT22;10144;50.874;4.762;2022-10-23T14:26:10;20.60;99.90
19966;DHT22;10144;50.874;4.762;2022-10-23T14:28:36;20.60;99.90
19966;DHT22;10144;50.874;4.762;2022-10-23T14:31:10;20.60;99.90
19966;DHT22;10144;50.874;4.762;2022-10-23T14:33:37;20.70;99.90
19966;DHT22;10144;50.874;4.762;2022-10-23T14:36:03;20.60;99.90
19966;DHT22;10144;50.874;4.762;2022-10-23T14:38:29;20.60;99.90
19966;DHT22;10144;50.874;4.762;2022-10-23T14:40:55;20.80;99.90
19966;DHT22;10144;50.874;4.762;2022-10-23T14:43:21;20.70;99.90
19966;DHT22;10144;50.874;4.762;2022-10-23T14:45:47;20.70;99.90
19966;DHT22;10144;50.874;4.762;2022-10-23T14:48:13;20.70;99.90
19966;DHT22;10144;50.874;4.762;2022-10-23T14:50:43;20.70;99.90
19966;DHT22;10144;50.874;4.762;2022-10-23T14:53:09;20.80;99.90
19966;DHT22;10144;50.874;4.762;2022-10-23T14:55:34;20.70;99.90
19966;DHT22;10144;50.874;4.762;2022-10-23T14:58:00;20.60;99.90
19966;DHT22;10144;50.874;4.762;2022-10-23T15:00:26;20.40;99.90
19966;DHT22;10144;50.874;4.762;2022-10-23T15:02:52;20.20;99.90
19966;DHT22;10144;50.874;4.762;2022-10-23T15:05:19;20.10;99.90
19966;DHT22;10144;50.874;4.762;2022-10-23T15:07:44;20.10;99.90
19966;DHT22;10144;50.874;4.762;2022-10-23T15:10:10;20.10;99.90
19966;DHT22;10144;50.874;4.762;2022-10-23T15:12:37;20.10;99.90
19966;DHT22;10144;50.874;4.762;2022-10-23T15:15:04;20.00;99.90
19966;DHT22;10144;50.874;4.762;2022-10-23T15:17:29;19.90;99.90
19966;DHT22;10144;50.874;4.762;2022-10-23T15:19:56;20.00;99.90
19966;DHT22;10144;50.874;4.762;2022-10-23T15:22:22;20.10;99.90
19966;DHT22;10144;50.874;4.762;2022-10-23T15:24:48;20.20;99.90
19966;DHT22;10144;50.874;4.762;2022-10-23T15:27:14;20.20;99.90
19966;DHT22;10144;50.874;4.762;2022-10-23T15:29:39;20.10;99.90
19966;DHT22;10144;50.874;4.762;2022-10-23T15:32:05;19.90;99.90
19966;DHT22;10144;50.874;4.762;2022-10-23T15:34:33;19.80;99.90
19966;DHT22;10144;50.874;4.762;2022-10-23T15:36:59;19.90;99.90
19966;DHT22;10144;50.874;4.762;2022-10-23T15:39:27;19.90;99.90
19966;DHT22;10144;50.874;4.762;2022-10-23T15:41:55;20.00;99.90
19966;DHT22;10144;50.874;4.762;2022-10-23T15:44:23;20.10;99.90
19966;DHT22;10144;50.874;4.762;2022-10-23T15:46:49;20.00;99.90
19966;DHT22;10144;50.874;4.762;2022-10-23T15:49:17;20.00;99.90
19966;DHT22;10144;50.874;4.762;2022-10-23T15:51:44;20.00;99.90
19966;DHT22;10144;50.874;4.762;2022-10-23T15:54:12;20.00;99.90
19966;DHT22;10144;50.874;4.762;2022-10-23T15:56:44;20.00;99.90
19966;DHT22;10144;50.874;4.762;2022-10-23T15:59:10;19.90;99.90
19966;DHT22;10144;50.874;4.762;2022-10-23T16:01:36;19.80;99.90
19966;DHT22;10144;50.874;4.762;2022-10-23T16:04:01;19.80;99.90
19966;DHT22;10144;50.874;4.762;2022-10-23T16:06:27;19.80;99.90
19966;DHT22;10144;50.874;4.762;2022-10-23T16:08:52;19.80;99.90
19966;DHT22;10144;50.874;4.762;2022-10-23T16:11:24;19.80;99.90
19966;DHT22;10144;50.874;4.762;2022-10-23T16:13:51;19.70;99.90
19966;DHT22;10144;50.874;4.762;2022-10-23T16:16:17;19.70;99.90
19966;DHT22;10144;50.874;4.762;2022-10-23T16:18:44;19.70;99.90
19966;DHT22;10144;50.874;4.762;2022-10-23T16:21:21;19.70;99.90
19966;DHT22;10144;50.874;4.762;2022-10-23T16:23:48;19.70;99.90
19966;DHT22;10144;50.874;4.762;2022-10-23T16:26:14;19.60;99.90
19966;DHT22;10144;50.874;4.762;2022-10-23T16:28:40;19.50;99.90
19966;DHT22;10144;50.874;4.762;2022-10-23T16:31:16;19.50;99.90
19966;DHT22;10144;50.874;4.762;2022-10-23T16:33:43;19.60;99.90
19966;DHT22;10144;50.874;4.762;2022-10-23T16:36:09;19.60;99.90
19966;DHT22;10144;50.874;4.762;2022-10-23T16:38:35;19.60;99.90
19966;DHT22;10144;50.874;4.762;2022-10-23T16:41:02;19.50;99.90
19966;DHT22;10144;50.874;4.762;2022-10-23T16:43:28;19.50;99.90
19966;DHT22;10144;50.874;4.762;2022-10-23T16:46:11;19.50;99.90
19966;DHT22;10144;50.874;4.762;2022-10-23T16:48:38;19.50;99.90
19966;DHT22;10144;50.874;4.762;2022-10-23T16:51:11;19.60;99.90
19966;DHT22;10144;50.874;4.762;2022-10-23T16:53:37;19.50;99.90
19966;DHT22;10144;50.874;4.762;2022-10-23T16:56:08;19.30;99.90
19966;DHT22;10144;50.874;4.762;2022-10-23T16:58:34;19.20;99.90
19966;DHT22;10144;50.874;4.762;2022-10-23T17:01:05;19.10;99.90
19966;DHT22;10144;50.874;4.762;2022-10-23T17:03:39;19.10;99.90
19966;DHT22;10144;50.874;4.762;2022-10-23T17:06:08;19.00;99.90
19966;DHT22;10144;50.874;4.762;2022-10-23T17:08:34;19.00;99.90
19966;DHT22;10144;50.874;4.762;2022-10-23T17:13:35;19.10;99.90
19966;DHT22;10144;50.874;4.762;2022-10-23T17:16:03;19.00;99.90
19966;DHT22;10144;50.874;4.762;2022-10-23T17:18:29;18.90;99.90
19966;DHT22;10144;50.874;4.762;2022-10-23T17:20:55;18.90;99.90
19966;DHT22;10144;50.874;4.762;2022-10-23T17:23:21;18.70;99.90
19966;DHT22;10144;50.874;4.762;2022-10-23T17:25:47;18.70;99.90
19966;DHT22;10144;50.874;4.762;2022-10-23T17:28:14;18.60;99.90
19966;DHT22;10144;50.874;4.762;2022-10-23T17:30:39;18.40;99.90
19966;DHT22;10144;50.874;4.762;2022-10-23T17:33:05;18.30;99.90
19966;DHT22;10144;50.874;4.762;2022-10-23T17:35:30;18.30;99.90
19966;DHT22;10144;50.874;4.762;2022-10-23T17:37:56;18.30;99.90
19966;DHT22;10144;50.874;4.762;2022-10-23T17:40:21;18.20;99.90
19966;DHT22;10144;50.874;4.762;2022-10-23T17:42:47;18.20;99.90
19966;DHT22;10144;50.874;4.762;2022-10-23T17:45:13;18.20;99.90
19966;DHT22;10144;50.874;4.762;2022-10-23T17:47:39;18.20;99.90
19966;DHT22;10144;50.874;4.762;2022-10-23T17:50:07;18.00;99.90
19966;DHT22;10144;50.874;4.762;2022-10-23T17:52:34;18.10;99.90
19966;DHT22;10144;50.874;4.762;2022-10-23T17:55:01;18.10;99.90
19966;DHT22;10144;50.874;4.762;2022-10-23T17:57:27;18.10;99.90
19966;DHT22;10144;50.874;4.762;2022-10-23T17:59:52;18.10;99.90
19966;DHT22;10144;50.874;4.762;2022-10-23T18:02:18;18.10;99.90
19966;DHT22;10144;50.874;4.762;2022-10-23T18:04:43;18.10;99.90
19966;DHT22;10144;50.874;4.762;2022-10-23T18:07:09;18.10;99.90
19966;DHT22;10144;50.874;4.762;2022-10-23T18:09:35;18.00;99.90
19966;DHT22;10144;50.874;4.762;2022-10-23T18:12:00;17.90;99.90
19966;DHT22;10144;50.874;4.762;2022-10-23T18:14:26;17.80;99.90
19966;DHT22;10144;50.874;4.762;2022-10-23T18:16:51;17.90;99.90
19966;DHT22;10144;50.874;4.762;2022-10-23T18:19:18;17.90;99.90
19966;DHT22;10144;50.874;4.762;2022-10-23T18:21:44;17.90;99.90
19966;DHT22;10144;50.874;4.762;2022-10-23T18:24:10;17.80;99.90
19966;DHT22;10144;50.874;4.762;2022-10-23T18:26:39;17.80;99.90
19966;DHT22;10144;50.874;4.762;2022-10-23T18:29:07;17.80;99.90
19966;DHT22;10144;50.874;4.762;2022-10-23T18:31:35;17.70;99.90
19966;DHT22;10144;50.874;4.762;2022-10-23T18:34:09;17.80;99.90
19966;DHT22;10144;50.874;4.762;2022-10-23T18:36:38;17.80;99.90
19966;DHT22;10144;50.874;4.762;2022-10-23T18:39:07;17.70;99.90
19966;DHT22;10144;50.874;4.762;2022-10-23T18:41:38;17.70;99.90
19966;DHT22;10144;50.874;4.762;2022-10-23T18:44:06;17.80;99.90
19966;DHT22;10144;50.874;4.762;2022-10-23T18:46:32;18.00;99.90
19966;DHT22;10144;50.874;4.762;2022-10-23T18:48:59;18.00;99.90
19966;DHT22;10144;50.874;4.762;2022-10-23T18:51:27;18.10;99.90
19966;DHT22;10144;50.874;4.762;2022-10-23T18:53:54;18.20;99.90
19966;DHT22;10144;50.874;4.762;2022-10-23T18:56:21;18.30;99.90
19966;DHT22;10144;50.874;4.762;2022-10-23T18:58:53;18.40;99.90
19966;DHT22;10144;50.874;4.762;2022-10-23T19:01:20;18.50;99.90
19966;DHT22;10144;50.874;4.762;2022-10-23T19:03:46;18.50;99.90
19966;DHT22;10144;50.874;4.762;2022-10-23T19:06:12;18.50;99.90
19966;DHT22;10144;50.874;4.762;2022-10-23T19:08:40;18.50;99.90
19966;DHT22;10144;50.874;4.762;2022-10-23T19:11:07;18.50;99.90
19966;DHT22;10144;50.874;4.762;2022-10-23T19:13:34;18.60;99.90
19966;DHT22;10144;50.874;4.762;2022-10-23T19:16:26;18.60;99.90
19966;DHT22;10144;50.874;4.762;2022-10-23T19:18:59;18.60;99.90
19966;DHT22;10144;50.874;4.762;2022-10-23T19:21:28;18.60;99.90
19966;DHT22;10144;50.874;4.762;2022-10-23T19:24:01;18.60;99.90
19966;DHT22;10144;50.874;4.762;2022-10-23T19:26:30;18.70;99.90
19966;DHT22;10144;50.874;4.762;2022-10-23T19:28:57;18.70;99.90
19966;DHT22;10144;50.874;4.762;2022-10-23T19:31:25;18.70;99.90
19966;DHT22;10144;50.874;4.762;2022-10-23T19:33:51;18.70;99.90
19966;DHT22;10144;50.874;4.762;2022-10-23T19:36:17;18.70;99.90
19966;DHT22;10144;50.874;4.762;2022-10-23T19:38:42;18.70;99.90
19966;DHT22;10144;50.874;4.762;2022-10-23T19:41:08;18.70;99.90
19966;DHT22;10144;50.874;4.762;2022-10-23T19:43:34;18.70;99.90
19966;DHT22;10144;50.874;4.762;2022-10-23T19:46:03;18.60;99.90
19966;DHT22;10144;50.874;4.762;2022-10-23T19:48:29;18.60;99.90
19966;DHT22;10144;50.874;4.762;2022-10-23T19:50:55;18.70;99.90
19966;DHT22;10144;50.874;4.762;2022-10-23T19:53:21;18.60;99.90
19966;DHT22;10144;50.874;4.762;2022-10-23T19:55:46;18.60;99.90
19966;DHT22;10144;50.874;4.762;2022-10-23T19:58:12;18.60;99.90
19966;DHT22;10144;50.874;4.762;2022-10-23T20:00:37;18.60;99.90
19966;DHT22;10144;50.874;4.762;2022-10-23T20:03:03;18.50;99.90
19966;DHT22;10144;50.874;4.762;2022-10-23T20:05:29;18.60;99.90
19966;DHT22;10144;50.874;4.762;2022-10-23T20:07:55;18.50;99.90
19966;DHT22;10144;50.874;4.762;2022-10-23T20:10:21;18.50;99.90
19966;DHT22;10144;50.874;4.762;2022-10-23T20:12:47;18.50;99.90
19966;DHT22;10144;50.874;4.762;2022-10-23T20:15:13;18.60;99.90
19966;DHT22;10144;50.874;4.762;2022-10-23T20:17:38;18.60;99.90
19966;DHT22;10144;50.874;4.762;2022-10-23T20:20:04;18.60;99.90
19966;DHT22;10144;50.874;4.762;2022-10-23T20:22:30;18.60;99.90
19966;DHT22;10144;50.874;4.762;2022-10-23T20:24:56;18.70;99.90
19966;DHT22;10144;50.874;4.762;2022-10-23T20:27:22;18.60;99.90
19966;DHT22;10144;50.874;4.762;2022-10-23T20:29:47;18.60;99.90
19966;DHT22;10144;50.874;4.762;2022-10-23T20:32:14;18.60;99.90
19966;DHT22;10144;50.874;4.762;2022-10-23T20:34:41;18.60;99.90
19966;DHT22;10144;50.874;4.762;2022-10-23T20:37:07;18.60;99.90
19966;DHT22;10144;50.874;4.762;2022-10-23T20:39:33;18.50;99.90
19966;DHT22;10144;50.874;4.762;2022-10-23T20:42:02;18.40;99.90
19966;DHT22;10144;50.874;4.762;2022-10-23T20:44:28;18.40;99.90
19966;DHT22;10144;50.874;4.762;2022-10-23T20:46:54;18.40;99.90
19966;DHT22;10144;50.874;4.762;2022-10-23T20:49:21;18.40;99.90
19966;DHT22;10144;50.874;4.762;2022-10-23T20:51:51;18.50;99.90
19966;DHT22;10144;50.874;4.762;2022-10-23T20:54:18;18.50;99.90
19966;DHT22;10144;50.874;4.762;2022-10-23T20:56:44;18.40;99.90
19966;DHT22;10144;50.874;4.762;2022-10-23T20:59:13;18.50;99.90
19966;DHT22;10144;50.874;4.762;2022-10-23T21:01:41;18.50;99.90
19966;DHT22;10144;50.874;4.762;2022-10-23T21:04:07;18.50;99.90
19966;DHT22;10144;50.874;4.762;2022-10-23T21:06:32;18.50;99.90
19966;DHT22;10144;50.874;4.762;2022-10-23T21:09:02;18.40;99.90
19966;DHT22;10144;50.874;4.762;2022-10-23T21:11:30;18.40;99.90
19966;DHT22;10144;50.874;4.762;2022-10-23T21:13:56;18.30;99.90
19966;DHT22;10144;50.874;4.762;2022-10-23T21:16:26;18.30;99.90
19966;DHT22;10144;50.874;4.762;2022-10-23T21:18:56;18.30;99.90
19966;DHT22;10144;50.874;4.762;2022-10-23T21:21:23;18.20;99.90
19966;DHT22;10144;50.874;4.762;2022-10-23T21:23:51;18.10;99.90
19966;DHT22;10144;50.874;4.762;2022-10-23T21:26:18;18.00;99.90
19966;DHT22;10144;50.874;4.762;2022-10-23T21:28:49;18.00;99.90
19966;DHT22;10144;50.874;4.762;2022-10-23T21:31:16;17.90;99.90
19966;DHT22;10144;50.874;4.762;2022-10-23T21:33:48;17.90;99.90
19966;DHT22;10144;50.874;4.762;2022-10-23T21:36:20;17.80;99.90
19966;DHT22;10144;50.874;4.762;2022-10-23T21:39:00;17.80;99.90
19966;DHT22;10144;50.874;4.762;2022-10-23T21:41:32;17.90;99.90
19966;DHT22;10144;50.874;4.762;2022-10-23T21:44:05;17.90;99.90
19966;DHT22;10144;50.874;4.762;2022-10-23T21:46:33;17.90;99.90
19966;DHT22;10144;50.874;4.762;2022-10-23T21:49:00;17.90;99.90
19966;DHT22;10144;50.874;4.762;2022-10-23T21:51:36;17.90;99.90
19966;DHT22;10144;50.874;4.762;2022-10-23T21:54:11;17.80;99.90
19966;DHT22;10144;50.874;4.762;2022-10-23T21:56:48;17.80;99.90
19966;DHT22;10144;50.874;4.762;2022-10-23T21:59:24;17.80;99.90
19966;DHT22;10144;50.874;4.762;2022-10-23T22:01:50;17.70;99.90
19966;DHT22;10144;50.874;4.762;2022-10-23T22:04:17;17.60;99.90
19966;DHT22;10144;50.874;4.762;2022-10-23T22:06:46;17.50;99.90
19966;DHT22;10144;50.874;4.762;2022-10-23T22:09:20;17.50;99.90
19966;DHT22;10144;50.874;4.762;2022-10-23T22:11:52;17.50;99.90
19966;DHT22;10144;50.874;4.762;2022-10-23T22:14:18;17.40;99.90
19966;DHT22;10144;50.874;4.762;2022-10-23T22:17:03;17.40;99.90
19966;DHT22;10144;50.874;4.762;2022-10-23T22:19:29;17.40;99.90
19966;DHT22;10144;50.874;4.762;2022-10-23T22:21:57;17.30;99.90
19966;DHT22;10144;50.874;4.762;2022-10-23T22:24:40;17.30;99.90
19966;DHT22;10144;50.874;4.762;2022-10-23T22:27:16;17.30;99.90
19966;DHT22;10144;50.874;4.762;2022-10-23T22:29:45;17.30;99.90
19966;DHT22;10144;50.874;4.762;2022-10-23T22:32:10;17.30;99.90
19966;DHT22;10144;50.874;4.762;2022-10-23T22:34:42;17.20;99.90
19966;DHT22;10144;50.874;4.762;2022-10-23T22:37:11;17.20;99.90
19966;DHT22;10144;50.874;4.762;2022-10-23T22:39:39;17.20;99.90
19966;DHT22;10144;50.874;4.762;2022-10-23T22:42:07;17.10;99.90
19966;DHT22;10144;50.874;4.762;2022-10-23T22:44:36;17.20;99.90
19966;DHT22;10144;50.874;4.762;2022-10-23T22:47:03;17.20;99.90
19966;DHT22;10144;50.874;4.762;2022-10-23T22:49:30;17.30;99.90
19966;DHT22;10144;50.874;4.762;2022-10-23T22:51:57;17.30;99.90
19966;DHT22;10144;50.874;4.762;2022-10-23T22:54:26;17.30;99.90
19966;DHT22;10144;50.874;4.762;2022-10-23T22:56:55;17.30;99.90
19966;DHT22;10144;50.874;4.762;2022-10-23T22:59:24;17.30;99.90
19966;DHT22;10144;50.874;4.762;2022-10-23T23:01:51;17.40;99.90
19966;DHT22;10144;50.874;4.762;2022-10-23T23:04:22;17.60;99.90
19966;DHT22;10144;50.874;4.762;2022-10-23T23:06:51;17.50;99.90
19966;DHT22;10144;50.874;4.762;2022-10-23T23:09:20;17.60;99.90
19966;DHT22;10144;50.874;4.762;2022-10-23T23:11:49;17.60;99.90
19966;DHT22;10144;50.874;4.762;2022-10-23T23:14:14;17.60;99.90
19966;DHT22;10144;50.874;4.762;2022-10-23T23:16:43;17.60;99.90
19966;DHT22;10144;50.874;4.762;2022-10-23T23:19:12;17.60;99.90
19966;DHT22;10144;50.874;4.762;2022-10-23T23:21:43;17.60;99.90
19966;DHT22;10144;50.874;4.762;2022-10-23T23:24:11;17.70;99.90
19966;DHT22;10144;50.874;4.762;2022-10-23T23:26:38;17.80;99.90